sensor_id;sensor_type;location;lat;lon;timestamp;pressure;altitude;pressure_sealevel;temperature;humidity
77147;BME280;66121;52.584;9.694;2024-03-08T00:01:39;101874.63;;;-1.23;100.00
77147;BME280;66121;52.584;9.694;2024-03-08T00:04:04;101886.28;;;-1.18;100.00
77147;BME280;66121;52.584;9.694;2024-03-08T00:06:31;101886.81;;;-1.26;100.00
77147;BME280;66121;52.584;9.694;2024-03-08T00:08:57;101891.97;;;-1.35;100.00
77147;BME280;66121;52.584;9.694;2024-03-08T00:11:22;101893.91;;;-1.35;100.00
77147;BME280;66121;52.584;9.694;2024-03-08T00:13:51;101889.56;;;-1.41;100.00
77147;BME280;66121;52.584;9.694;2024-03-08T00:16:17;101889.31;;;-1.45;100.00
77147;BME280;66121;52.584;9.694;2024-03-08T00:18:44;101890.91;;;-1.39;100.00
77147;BME280;66121;52.584;9.694;2024-03-08T00:21:10;101895.53;;;-1.44;100.00
77147;BME280;66121;52.584;9.694;2024-03-08T00:23:37;101876.59;;;-1.54;100.00
77147;BME280;66121;52.584;9.694;2024-03-08T00:26:02;101878.22;;;-1.48;100.00
77147;BME280;66121;52.584;9.694;2024-03-08T00:28:29;101882.28;;;-1.51;100.00
77147;BME280;66121;52.584;9.694;2024-03-08T00:30:55;101884.19;;;-1.56;100.00
77147;BME280;66121;52.584;9.694;2024-03-08T00:33:21;101856.63;;;-1.88;100.00
77147;BME280;66121;52.584;9.694;2024-03-08T00:35:46;101881.22;;;-1.65;100.00
77147;BME280;66121;52.584;9.694;2024-03-08T00:38:12;101871.78;;;-1.77;100.00
77147;BME280;66121;52.584;9.694;2024-03-08T00:40:38;101885.28;;;-1.67;100.00
77147;BME280;66121;52.584;9.694;2024-03-08T00:43:05;101886.09;;;-1.72;100.00
77147;BME280;66121;52.584;9.694;2024-03-08T00:45:31;101880.97;;;-1.78;100.00
77147;BME280;66121;52.584;9.694;2024-03-08T00:47:56;101873.38;;;-1.71;100.00
77147;BME280;66121;52.584;9.694;2024-03-08T00:50:21;101886.06;;;-1.67;100.00
77147;BME280;66121;52.584;9.694;2024-03-08T00:52:47;101877.72;;;-1.75;100.00
77147;BME280;66121;52.584;9.694;2024-03-08T00:55:12;101858.78;;;-1.80;100.00
77147;BME280;66121;52.584;9.694;2024-03-08T00:57:38;101865.28;;;-1.86;100.00
77147;BME280;66121;52.584;9.694;2024-03-08T01:00:05;101873.13;;;-1.90;100.00
77147;BME280;66121;52.584;9.694;2024-03-08T01:02:35;101873.13;;;-1.90;100.00
77147;BME280;66121;52.584;9.694;2024-03-08T01:05:01;101876.91;;;-1.96;100.00
77147;BME280;66121;52.584;9.694;2024-03-08T01:07:26;101867.97;;;-2.02;100.00
77147;BME280;66121;52.584;9.694;2024-03-08T01:09:51;101858.78;;;-2.06;100.00
77147;BME280;66121;52.584;9.694;2024-03-08T01:12:17;101859.06;;;-2.02;100.00
77147;BME280;66121;52.584;9.694;2024-03-08T01:14:42;101856.38;;;-2.02;100.00
77147;BME280;66121;52.584;9.694;2024-03-08T01:17:07;101837.16;;;-2.16;100.00
77147;BME280;66121;52.584;9.694;2024-03-08T01:19:35;101853.38;;;-2.06;100.00
77147;BME280;66121;52.584;9.694;2024-03-08T01:22:00;101841.75;;;-2.01;100.00
77147;BME280;66121;52.584;9.694;2024-03-08T01:24:25;101844.19;;;-2.00;100.00
77147;BME280;66121;52.584;9.694;2024-03-08T01:26:51;101846.09;;;-2.00;100.00
77147;BME280;66121;52.584;9.694;2024-03-08T01:29:16;101830.41;;;-2.08;100.00
77147;BME280;66121;52.584;9.694;2024-03-08T01:31:42;101831.75;;;-2.01;100.00
77147;BME280;66121;52.584;9.694;2024-03-08T01:34:07;101835.81;;;-2.03;100.00
77147;BME280;66121;52.584;9.694;2024-03-08T01:36:33;101824.72;;;-2.02;100.00
77147;BME280;66121;52.584;9.694;2024-03-08T01:38:58;101823.34;;;-2.09;100.00
77147;BME280;66121;52.584;9.694;2024-03-08T01:41:23;101820.41;;;-2.08;100.00
77147;BME280;66121;52.584;9.694;2024-03-08T01:43:49;101797.13;;;-2.19;100.00
77147;BME280;66121;52.584;9.694;2024-03-08T01:46:19;101803.66;;;-2.20;100.00
77147;BME280;66121;52.584;9.694;2024-03-08T01:48:44;101815.53;;;-2.11;100.00
77147;BME280;66121;52.584;9.694;2024-03-08T01:51:10;101812.81;;;-2.11;100.00
77147;BME280;66121;52.584;9.694;2024-03-08T01:53:37;101800.94;;;-2.10;100.00
77147;BME280;66121;52.584;9.694;2024-03-08T01:56:02;101807.13;;;-1.89;100.00
77147;BME280;66121;52.584;9.694;2024-03-08T01:58:31;101796.88;;;-2.02;100.00
77147;BME280;66121;52.584;9.694;2024-03-08T02:00:58;101792.00;;;-2.05;100.00
77147;BME280;66121;52.584;9.694;2024-03-08T02:03:24;101786.31;;;-1.99;100.00
77147;BME280;66121;52.584;9.694;2024-03-08T02:05:50;101782.78;;;-1.94;100.00
77147;BME280;66121;52.584;9.694;2024-03-08T02:08:17;101770.38;;;-2.00;100.00
77147;BME280;66121;52.584;9.694;2024-03-08T02:10:43;101731.16;;;-2.03;100.00
77147;BME280;66121;52.584;9.694;2024-03-08T02:13:09;101774.06;;;-1.66;100.00
77147;BME280;66121;52.584;9.694;2024-03-08T02:15:55;101777.00;;;-1.47;100.00
77147;BME280;66121;52.584;9.694;2024-03-08T02:18:22;101762.88;;;-1.39;100.00
77147;BME280;66121;52.584;9.694;2024-03-08T02:20:58;101763.16;;;-1.41;100.00
77147;BME280;66121;52.584;9.694;2024-03-08T02:23:24;101756.63;;;-1.35;100.00
77147;BME280;66121;52.584;9.694;2024-03-08T02:25:53;101744.72;;;-1.34;100.00
77147;BME280;66121;52.584;9.694;2024-03-08T02:28:19;101749.09;;;-1.38;100.00
77147;BME280;66121;52.584;9.694;2024-03-08T02:30:45;101732.88;;;-1.48;100.00
77147;BME280;66121;52.584;9.694;2024-03-08T02:33:15;101743.06;;;-1.30;100.00
77147;BME280;66121;52.584;9.694;2024-03-08T02:35:47;101740.13;;;-1.33;100.00
77147;BME280;66121;52.584;9.694;2024-03-08T02:38:17;101723.66;;;-1.47;100.00
77147;BME280;66121;52.584;9.694;2024-03-08T02:40:44;101737.97;;;-1.41;100.00
77147;BME280;66121;52.584;9.694;2024-03-08T02:43:10;101731.47;;;-1.35;100.00
77147;BME280;66121;52.584;9.694;2024-03-08T02:45:36;101723.88;;;-1.33;100.00
77147;BME280;66121;52.584;9.694;2024-03-08T02:48:01;101723.34;;;-1.35;100.00
77147;BME280;66121;52.584;9.694;2024-03-08T02:50:27;101723.38;;;-1.40;100.00
77147;BME280;66121;52.584;9.694;2024-03-08T02:52:52;101725.78;;;-1.39;100.00
77147;BME280;66121;52.584;9.694;2024-03-08T02:55:18;101704.22;;;-1.54;100.00
77147;BME280;66121;52.584;9.694;2024-03-08T02:57:43;101712.84;;;-1.47;100.00
77147;BME280;66121;52.584;9.694;2024-03-08T03:00:09;101700.44;;;-1.53;100.00
77147;BME280;66121;52.584;9.694;2024-03-08T03:02:35;101714.41;;;-1.36;100.00
77147;BME280;66121;52.584;9.694;2024-03-08T03:05:01;101708.44;;;-1.33;100.00
77147;BME280;66121;52.584;9.694;2024-03-08T03:07:32;101689.78;;;-1.39;100.00
77147;BME280;66121;52.584;9.694;2024-03-08T03:10:01;101687.94;;;-1.49;100.00
77147;BME280;66121;52.584;9.694;2024-03-08T03:12:30;101701.47;;;-1.44;100.00
77147;BME280;66121;52.584;9.694;2024-03-08T03:14:56;101700.97;;;-1.51;100.00
77147;BME280;66121;52.584;9.694;2024-03-08T03:17:23;101703.31;;;-1.34;100.00
77147;BME280;66121;52.584;9.694;2024-03-08T03:19:49;101683.31;;;-1.38;100.00
77147;BME280;66121;52.584;9.694;2024-03-08T03:22:15;101693.56;;;-1.35;100.00
77147;BME280;66121;52.584;9.694;2024-03-08T03:24:41;101684.88;;;-1.32;100.00
77147;BME280;66121;52.584;9.694;2024-03-08T03:27:07;101686.22;;;-1.30;100.00
77147;BME280;66121;52.584;9.694;2024-03-08T03:29:43;101690.25;;;-1.27;100.00
77147;BME280;66121;52.584;9.694;2024-03-08T03:32:12;101668.63;;;-1.32;100.00
77147;BME280;66121;52.584;9.694;2024-03-08T03:34:38;101683.19;;;-1.18;100.00
77147;BME280;66121;52.584;9.694;2024-03-08T03:37:04;101679.69;;;-1.23;100.00
77147;BME280;66121;52.584;9.694;2024-03-08T03:39:30;101681.34;;;-1.27;100.00
77147;BME280;66121;52.584;9.694;2024-03-08T03:42:16;101686.00;;;-1.38;100.00
77147;BME280;66121;52.584;9.694;2024-03-08T03:44:44;101661.50;;;-1.62;100.00
77147;BME280;66121;52.584;9.694;2024-03-08T03:47:10;101676.34;;;-1.59;100.00
77147;BME280;66121;52.584;9.694;2024-03-08T03:49:35;101678.50;;;-1.56;100.00
77147;BME280;66121;52.584;9.694;2024-03-08T03:52:00;101691.19;;;-1.52;100.00
77147;BME280;66121;52.584;9.694;2024-03-08T03:54:25;101694.66;;;-1.36;100.00
77147;BME280;66121;52.584;9.694;2024-03-08T03:56:51;101684.72;;;-1.51;100.00
77147;BME280;66121;52.584;9.694;2024-03-08T03:59:18;101685.53;;;-1.50;100.00
77147;BME280;66121;52.584;9.694;2024-03-08T04:01:44;101686.59;;;-1.51;100.00
77147;BME280;66121;52.584;9.694;2024-03-08T04:04:09;101686.59;;;-1.46;100.00
77147;BME280;66121;52.584;9.694;2024-03-08T04:06:35;101681.72;;;-1.49;100.00
77147;BME280;66121;52.584;9.694;2024-03-08T04:09:00;101686.59;;;-1.51;100.00
77147;BME280;66121;52.584;9.694;2024-03-08T04:11:25;101683.94;;;-1.56;100.00
77147;BME280;66121;52.584;9.694;2024-03-08T04:13:51;101690.16;;;-1.56;100.00
77147;BME280;66121;52.584;9.694;2024-03-08T04:16:17;101680.72;;;-1.63;100.00
77147;BME280;66121;52.584;9.694;2024-03-08T04:18:44;101691.50;;;-1.53;100.00
77147;BME280;66121;52.584;9.694;2024-03-08T04:21:09;101682.59;;;-1.59;100.00
77147;BME280;66121;52.584;9.694;2024-03-08T04:23:34;101686.09;;;-1.53;100.00
77147;BME280;66121;52.584;9.694;2024-03-08T04:26:03;101690.19;;;-1.66;100.00
77147;BME280;66121;52.584;9.694;2024-03-08T04:28:29;101688.03;;;-1.64;100.00
77147;BME280;66121;52.584;9.694;2024-03-08T04:30:55;101696.63;;;-1.57;100.00
77147;BME280;66121;52.584;9.694;2024-03-08T04:33:20;101692.88;;;-1.61;100.00
77147;BME280;66121;52.584;9.694;2024-03-08T04:35:47;101690.47;;;-1.62;100.00
77147;BME280;66121;52.584;9.694;2024-03-08T04:38:12;101698.03;;;-1.64;100.00
77147;BME280;66121;52.584;9.694;2024-03-08T04:40:38;101686.69;;;-1.71;100.00
77147;BME280;66121;52.584;9.694;2024-03-08T04:43:03;101695.31;;;-1.64;100.00
77147;BME280;66121;52.584;9.694;2024-03-08T04:45:29;101683.72;;;-1.70;100.00
77147;BME280;66121;52.584;9.694;2024-03-08T04:47:54;101668.31;;;-1.74;100.00
77147;BME280;66121;52.584;9.694;2024-03-08T04:50:19;101680.78;;;-1.78;100.00
77147;BME280;66121;52.584;9.694;2024-03-08T04:52:45;101684.00;;;-1.71;100.00
77147;BME280;66121;52.584;9.694;2024-03-08T04:55:11;101665.91;;;-1.81;100.00
77147;BME280;66121;52.584;9.694;2024-03-08T04:57:37;101680.78;;;-1.78;100.00
77147;BME280;66121;52.584;9.694;2024-03-08T05:00:03;101684.28;;;-1.73;100.00
77147;BME280;66121;52.584;9.694;2024-03-08T05:02:35;101661.59;;;-1.87;100.00
77147;BME280;66121;52.584;9.694;2024-03-08T05:05:01;101661.59;;;-1.87;100.00
77147;BME280;66121;52.584;9.694;2024-03-08T05:07:27;101673.72;;;-1.79;100.00
77147;BME280;66121;52.584;9.694;2024-03-08T05:09:52;101677.03;;;-1.82;100.00
77147;BME280;66121;52.584;9.694;2024-03-08T05:12:18;101674.81;;;-1.75;100.00
77147;BME280;66121;52.584;9.694;2024-03-08T05:14:45;101672.94;;;-1.80;100.00
77147;BME280;66121;52.584;9.694;2024-03-08T05:17:11;101672.13;;;-1.80;100.00
77147;BME280;66121;52.584;9.694;2024-03-08T05:19:37;101667.56;;;-1.90;100.00
77147;BME280;66121;52.584;9.694;2024-03-08T05:22:02;101661.91;;;-1.99;100.00
77147;BME280;66121;52.584;9.694;2024-03-08T05:24:28;101668.09;;;-1.83;100.00
77147;BME280;66121;52.584;9.694;2024-03-08T05:26:55;101674.84;;;-1.80;100.00
77147;BME280;66121;52.584;9.694;2024-03-08T05:29:20;101670.53;;;-1.86;100.00
77147;BME280;66121;52.584;9.694;2024-03-08T05:31:46;101669.44;;;-1.85;100.00
77147;BME280;66121;52.584;9.694;2024-03-08T05:34:13;101649.47;;;-1.94;100.00
77147;BME280;66121;52.584;9.694;2024-03-08T05:36:40;101652.19;;;-1.94;100.00
77147;BME280;66121;52.584;9.694;2024-03-08T05:39:05;101655.41;;;-1.87;100.00
77147;BME280;66121;52.584;9.694;2024-03-08T05:41:32;101652.94;;;-1.84;100.00
77147;BME280;66121;52.584;9.694;2024-03-08T05:43:57;101652.94;;;-1.84;100.00
77147;BME280;66121;52.584;9.694;2024-03-08T05:46:22;101654.06;;;-1.90;100.00
77147;BME280;66121;52.584;9.694;2024-03-08T05:48:48;101643.47;;;-1.86;100.00
77147;BME280;66121;52.584;9.694;2024-03-08T05:51:13;101632.69;;;-1.97;100.00
77147;BME280;66121;52.584;9.694;2024-03-08T05:53:38;101645.94;;;-1.90;100.00
77147;BME280;66121;52.584;9.694;2024-03-08T05:56:04;101631.91;;;-1.92;100.00
77147;BME280;66121;52.584;9.694;2024-03-08T05:58:29;101631.59;;;-1.90;100.00
77147;BME280;66121;52.584;9.694;2024-03-08T06:00:57;101626.50;;;-1.92;100.00
77147;BME280;66121;52.584;9.694;2024-03-08T06:03:23;101618.31;;;-1.87;100.00
77147;BME280;66121;52.584;9.694;2024-03-08T06:05:49;101617.19;;;-1.76;100.00
77147;BME280;66121;52.584;9.694;2024-03-08T06:08:14;101623.88;;;-1.58;100.00
77147;BME280;66121;52.584;9.694;2024-03-08T06:10:40;101626.28;;;-1.57;100.00
77147;BME280;66121;52.584;9.694;2024-03-08T06:13:05;101629.53;;;-1.55;100.00
77147;BME280;66121;52.584;9.694;2024-03-08T06:15:31;101621.66;;;-1.51;100.00
77147;BME280;66121;52.584;9.694;2024-03-08T06:17:57;101617.63;;;-1.59;100.00
77147;BME280;66121;52.584;9.694;2024-03-08T06:20:22;101610.06;;;-1.57;100.00
77147;BME280;66121;52.584;9.694;2024-03-08T06:22:51;101630.84;;;-1.47;100.00
77147;BME280;66121;52.584;9.694;2024-03-08T06:25:17;101613.19;;;-1.40;100.00
77147;BME280;66121;52.584;9.694;2024-03-08T06:27:42;101617.19;;;-1.32;100.00
77147;BME280;66121;52.584;9.694;2024-03-08T06:30:08;101609.84;;;-1.26;100.00
77147;BME280;66121;52.584;9.694;2024-03-08T06:32:37;101611.72;;;-1.22;100.00
77147;BME280;66121;52.584;9.694;2024-03-08T06:35:03;101584.16;;;-1.29;100.00
77147;BME280;66121;52.584;9.694;2024-03-08T06:37:34;101604.09;;;-1.15;100.00
77147;BME280;66121;52.584;9.694;2024-03-08T06:40:00;101585.72;;;-1.18;100.00
77147;BME280;66121;52.584;9.694;2024-03-08T06:42:29;101587.47;;;-1.03;100.00
77147;BME280;66121;52.584;9.694;2024-03-08T06:44:55;101586.34;;;-0.97;100.00
77147;BME280;66121;52.584;9.694;2024-03-08T06:47:25;101581.47;;;-0.95;100.00
77147;BME280;66121;52.584;9.694;2024-03-08T06:49:51;101578.41;;;-0.89;100.00
77147;BME280;66121;52.584;9.694;2024-03-08T06:52:17;101566.16;;;-0.81;100.00
77147;BME280;66121;52.584;9.694;2024-03-08T06:54:42;101562.00;;;-0.74;100.00
77147;BME280;66121;52.584;9.694;2024-03-08T06:57:07;101560.31;;;-0.70;100.00
77147;BME280;66121;52.584;9.694;2024-03-08T06:59:35;101556.78;;;-0.65;100.00
77147;BME280;66121;52.584;9.694;2024-03-08T07:02:01;101543.75;;;-0.63;100.00
77147;BME280;66121;52.584;9.694;2024-03-08T07:04:27;101549.53;;;-0.46;100.00
77147;BME280;66121;52.584;9.694;2024-03-08T07:06:55;101543.69;;;-0.34;100.00
77147;BME280;66121;52.584;9.694;2024-03-08T07:09:21;101538.72;;;-0.27;100.00
77147;BME280;66121;52.584;9.694;2024-03-08T07:11:46;101538.00;;;-0.14;100.00
77147;BME280;66121;52.584;9.694;2024-03-08T07:14:12;101502.88;;;-0.24;100.00
77147;BME280;66121;52.584;9.694;2024-03-08T07:16:37;101523.94;;;0.03;100.00
77147;BME280;66121;52.584;9.694;2024-03-08T07:19:04;101513.09;;;0.03;100.00
77147;BME280;66121;52.584;9.694;2024-03-08T07:21:30;101479.66;;;-0.12;99.65
77147;BME280;66121;52.584;9.694;2024-03-08T07:23:56;101487.09;;;0.02;99.66
77147;BME280;66121;52.584;9.694;2024-03-08T07:26:24;101486.44;;;0.10;99.25
77147;BME280;66121;52.584;9.694;2024-03-08T07:28:49;101495.19;;;0.20;98.63
77147;BME280;66121;52.584;9.694;2024-03-08T07:31:14;101477.91;;;0.16;98.40
77147;BME280;66121;52.584;9.694;2024-03-08T07:33:40;101472.41;;;0.21;98.22
77147;BME280;66121;52.584;9.694;2024-03-08T07:36:05;101479.81;;;0.34;97.96
77147;BME280;66121;52.584;9.694;2024-03-08T07:38:30;101479.41;;;0.41;97.30
77147;BME280;66121;52.584;9.694;2024-03-08T07:40:56;101479.25;;;0.51;97.62
77147;BME280;66121;52.584;9.694;2024-03-08T07:43:22;101462.16;;;0.50;97.18
77147;BME280;66121;52.584;9.694;2024-03-08T07:45:48;101461.56;;;0.53;96.68
77147;BME280;66121;52.584;9.694;2024-03-08T07:48:13;101453.84;;;0.60;96.00
77147;BME280;66121;52.584;9.694;2024-03-08T07:50:40;101430.53;;;0.59;96.32
77147;BME280;66121;52.584;9.694;2024-03-08T07:53:06;101434.66;;;0.71;95.74
77147;BME280;66121;52.584;9.694;2024-03-08T07:55:32;101436.09;;;0.82;95.17
77147;BME280;66121;52.584;9.694;2024-03-08T07:57:58;101419.38;;;0.75;94.84
77147;BME280;66121;52.584;9.694;2024-03-08T08:00:24;101416.19;;;0.86;94.28
77147;BME280;66121;52.584;9.694;2024-03-08T08:02:52;101397.66;;;0.88;94.74
77147;BME280;66121;52.584;9.694;2024-03-08T08:05:18;101403.41;;;1.00;93.52
77147;BME280;66121;52.584;9.694;2024-03-08T08:07:46;101406.72;;;1.11;94.12
77147;BME280;66121;52.584;9.694;2024-03-08T08:10:15;101406.31;;;1.31;93.90
77147;BME280;66121;52.584;9.694;2024-03-08T08:12:46;101388.38;;;1.30;93.43
77147;BME280;66121;52.584;9.694;2024-03-08T08:15:12;101375.41;;;1.27;92.84
77147;BME280;66121;52.584;9.694;2024-03-08T08:17:38;101356.19;;;1.37;91.86
77147;BME280;66121;52.584;9.694;2024-03-08T08:20:04;101355.31;;;1.50;91.24
77147;BME280;66121;52.584;9.694;2024-03-08T08:22:31;101340.13;;;1.49;91.31
77147;BME280;66121;52.584;9.694;2024-03-08T08:24:56;101352.13;;;1.70;90.92
77147;BME280;66121;52.584;9.694;2024-03-08T08:27:21;101345.03;;;1.83;90.55
77147;BME280;66121;52.584;9.694;2024-03-08T08:29:47;101328.66;;;1.97;89.55
77147;BME280;66121;52.584;9.694;2024-03-08T08:32:13;101303.91;;;2.07;88.89
77147;BME280;66121;52.584;9.694;2024-03-08T08:34:38;101288.50;;;2.33;88.26
77147;BME280;66121;52.584;9.694;2024-03-08T08:37:03;101283.84;;;2.64;86.73
77147;BME280;66121;52.584;9.694;2024-03-08T08:39:29;101274.16;;;2.89;86.67
77147;BME280;66121;52.584;9.694;2024-03-08T08:41:54;101238.72;;;2.89;84.66
77147;BME280;66121;52.584;9.694;2024-03-08T08:44:20;101216.94;;;3.06;83.99
77147;BME280;66121;52.584;9.694;2024-03-08T08:46:45;101199.47;;;3.24;82.73
77147;BME280;66121;52.584;9.694;2024-03-08T08:49:10;101172.59;;;3.52;81.59
77147;BME280;66121;52.584;9.694;2024-03-08T08:51:39;101155.25;;;3.73;80.69
77147;BME280;66121;52.584;9.694;2024-03-08T08:54:05;101138.72;;;4.08;79.31
77147;BME280;66121;52.584;9.694;2024-03-08T08:56:31;101101.06;;;4.22;78.32
77147;BME280;66121;52.584;9.694;2024-03-08T08:58:57;101077.56;;;4.50;77.09
77147;BME280;66121;52.584;9.694;2024-03-08T09:01:23;101073.28;;;5.02;75.95
77147;BME280;66121;52.584;9.694;2024-03-08T09:03:48;101060.03;;;5.37;74.67
77147;BME280;66121;52.584;9.694;2024-03-08T09:06:15;101016.50;;;5.44;73.60
77147;BME280;66121;52.584;9.694;2024-03-08T09:08:41;100987.34;;;5.84;71.96
77147;BME280;66121;52.584;9.694;2024-03-08T09:11:07;100965.50;;;5.64;71.38
77147;BME280;66121;52.584;9.694;2024-03-08T09:13:32;100951.97;;;5.55;70.80
77147;BME280;66121;52.584;9.694;2024-03-08T09:15:59;100945.66;;;5.79;70.47
77147;BME280;66121;52.584;9.694;2024-03-08T09:18:24;100957.41;;;5.31;69.67
77147;BME280;66121;52.584;9.694;2024-03-08T09:20:50;100944.66;;;5.59;69.42
77147;BME280;66121;52.584;9.694;2024-03-08T09:23:16;100932.28;;;6.41;68.66
77147;BME280;66121;52.584;9.694;2024-03-08T09:25:44;100910.47;;;6.45;67.66
77147;BME280;66121;52.584;9.694;2024-03-08T09:28:10;100908.94;;;6.91;66.97
77147;BME280;66121;52.584;9.694;2024-03-08T09:30:37;100892.31;;;6.99;65.89
77147;BME280;66121;52.584;9.694;2024-03-08T09:33:04;100892.69;;;6.98;65.48
77147;BME280;66121;52.584;9.694;2024-03-08T09:35:29;100882.03;;;6.96;64.94
77147;BME280;66121;52.584;9.694;2024-03-08T09:37:55;100886.53;;;7.70;65.03
77147;BME280;66121;52.584;9.694;2024-03-08T09:40:21;100807.25;;;7.15;63.26
77147;BME280;66121;52.584;9.694;2024-03-08T09:42:49;100869.91;;;6.82;63.64
77147;BME280;66121;52.584;9.694;2024-03-08T09:45:14;100920.72;;;7.73;64.95
77147;BME280;66121;52.584;9.694;2024-03-08T09:47:41;100826.75;;;7.45;62.48
77147;BME280;66121;52.584;9.694;2024-03-08T09:50:07;100824.69;;;7.07;62.88
77147;BME280;66121;52.584;9.694;2024-03-08T09:52:36;100846.47;;;6.84;63.09
77147;BME280;66121;52.584;9.694;2024-03-08T09:55:05;100870.47;;;7.53;63.38
77147;BME280;66121;52.584;9.694;2024-03-08T09:57:31;100822.69;;;7.23;62.86
77147;BME280;66121;52.584;9.694;2024-03-08T09:59:57;100815.84;;;8.06;61.70
77147;BME280;66121;52.584;9.694;2024-03-08T10:02:22;100766.16;;;8.14;61.48
77147;BME280;66121;52.584;9.694;2024-03-08T10:04:48;100729.94;;;7.48;60.39
77147;BME280;66121;52.584;9.694;2024-03-08T10:07:13;100744.38;;;7.64;60.59
77147;BME280;66121;52.584;9.694;2024-03-08T10:09:39;100748.59;;;7.23;61.12
77147;BME280;66121;52.584;9.694;2024-03-08T10:12:05;100774.06;;;7.39;61.36
77147;BME280;66121;52.584;9.694;2024-03-08T10:14:30;100771.31;;;7.97;61.32
77147;BME280;66121;52.584;9.694;2024-03-08T10:16:57;100732.59;;;7.83;60.77
77147;BME280;66121;52.584;9.694;2024-03-08T10:19:25;100700.81;;;8.04;60.03
77147;BME280;66121;52.584;9.694;2024-03-08T10:21:52;100667.41;;;8.25;59.41
77147;BME280;66121;52.584;9.694;2024-03-08T10:24:19;100654.00;;;7.78;59.54
77147;BME280;66121;52.584;9.694;2024-03-08T10:26:44;100660.56;;;7.93;59.41
77147;BME280;66121;52.584;9.694;2024-03-08T10:29:09;100636.91;;;8.30;58.61
77147;BME280;66121;52.584;9.694;2024-03-08T10:31:35;100628.75;;;7.92;58.43
77147;BME280;66121;52.584;9.694;2024-03-08T10:34:01;100604.34;;;7.64;58.92
77147;BME280;66121;52.584;9.694;2024-03-08T10:36:28;100642.31;;;7.81;59.32
77147;BME280;66121;52.584;9.694;2024-03-08T10:38:53;100618.50;;;8.11;58.61
77147;BME280;66121;52.584;9.694;2024-03-08T10:41:19;100646.16;;;7.76;58.32
77147;BME280;66121;52.584;9.694;2024-03-08T10:49:17;100682.34;;;9.02;57.42
77147;BME280;66121;52.584;9.694;2024-03-08T10:51:43;100666.13;;;8.68;56.63
77147;BME280;66121;52.584;9.694;2024-03-08T10:54:10;100679.78;;;8.61;57.42
77147;BME280;66121;52.584;9.694;2024-03-08T10:56:37;100657.75;;;8.12;57.23
77147;BME280;66121;52.584;9.694;2024-03-08T10:59:03;100681.91;;;8.45;57.09
77147;BME280;66121;52.584;9.694;2024-03-08T11:01:30;100676.16;;;9.09;57.26
77147;BME280;66121;52.584;9.694;2024-03-08T11:03:55;100698.72;;;9.51;57.77
77147;BME280;66121;52.584;9.694;2024-03-08T11:08:48;100619.09;;;8.24;56.44
77147;BME280;66121;52.584;9.694;2024-03-08T11:13:56;100617.28;;;8.31;56.38
77147;BME280;66121;52.584;9.694;2024-03-08T11:18:58;100623.81;;;8.01;57.40
77147;BME280;66121;52.584;9.694;2024-03-08T11:21:32;100627.44;;;8.27;57.00
77147;BME280;66121;52.584;9.694;2024-03-08T11:24:10;100644.06;;;8.90;57.16
77147;BME280;66121;52.584;9.694;2024-03-08T11:26:37;100628.75;;;8.37;57.10
77147;BME280;66121;52.584;9.694;2024-03-08T11:29:42;100627.00;;;8.52;56.94
77147;BME280;66121;52.584;9.694;2024-03-08T11:32:17;100612.63;;;8.35;56.70
77147;BME280;66121;52.584;9.694;2024-03-08T11:34:48;100610.47;;;8.25;57.46
77147;BME280;66121;52.584;9.694;2024-03-08T11:37:16;100608.47;;;8.22;57.24
77147;BME280;66121;52.584;9.694;2024-03-08T11:39:50;100604.38;;;8.35;57.41
77147;BME280;66121;52.584;9.694;2024-03-08T11:42:17;100616.38;;;8.50;57.98
77147;BME280;66121;52.584;9.694;2024-03-08T11:44:46;100627.63;;;8.68;57.49
77147;BME280;66121;52.584;9.694;2024-03-08T11:47:13;100577.81;;;7.98;57.45
77147;BME280;66121;52.584;9.694;2024-03-08T11:49:39;100627.53;;;8.34;58.02
77147;BME280;66121;52.584;9.694;2024-03-08T11:52:11;100612.25;;;8.37;57.68
77147;BME280;66121;52.584;9.694;2024-03-08T11:54:38;100622.34;;;8.56;58.42
77147;BME280;66121;52.584;9.694;2024-03-08T11:57:04;100625.16;;;8.59;58.53
77147;BME280;66121;52.584;9.694;2024-03-08T11:59:29;100618.91;;;8.62;58.68
77147;BME280;66121;52.584;9.694;2024-03-08T12:02:03;100579.53;;;8.55;57.81
77147;BME280;66121;52.584;9.694;2024-03-08T12:04:30;100592.53;;;8.31;58.66
77147;BME280;66121;52.584;9.694;2024-03-08T12:06:56;100571.81;;;8.37;58.05
77147;BME280;66121;52.584;9.694;2024-03-08T12:09:22;100583.06;;;8.29;58.09
77147;BME280;66121;52.584;9.694;2024-03-08T12:11:48;100603.72;;;8.46;58.64
77147;BME280;66121;52.584;9.694;2024-03-08T12:14:14;100577.47;;;8.25;58.62
77147;BME280;66121;52.584;9.694;2024-03-08T12:16:40;100638.44;;;8.80;58.86
77147;BME280;66121;52.584;9.694;2024-03-08T12:19:06;100570.63;;;8.38;58.44
77147;BME280;66121;52.584;9.694;2024-03-08T12:21:32;100568.47;;;8.25;58.09
77147;BME280;66121;52.584;9.694;2024-03-08T12:24:08;100569.53;;;8.20;58.53
77147;BME280;66121;52.584;9.694;2024-03-08T12:26:36;100611.16;;;8.41;58.59
77147;BME280;66121;52.584;9.694;2024-03-08T12:29:15;100567.50;;;8.66;57.71
77147;BME280;66121;52.584;9.694;2024-03-08T12:31:46;100565.47;;;8.33;58.10
77147;BME280;66121;52.584;9.694;2024-03-08T12:34:12;100602.69;;;8.83;58.89
77147;BME280;66121;52.584;9.694;2024-03-08T12:36:44;100568.19;;;8.60;58.68
77147;BME280;66121;52.584;9.694;2024-03-08T12:39:10;100536.91;;;8.71;58.30
77147;BME280;66121;52.584;9.694;2024-03-08T12:41:40;100533.78;;;8.73;57.60
77147;BME280;66121;52.584;9.694;2024-03-08T12:44:06;100535.31;;;8.70;57.60
77147;BME280;66121;52.584;9.694;2024-03-08T12:46:32;100550.34;;;9.10;58.13
77147;BME280;66121;52.584;9.694;2024-03-08T12:48:58;100539.25;;;9.39;57.29
77147;BME280;66121;52.584;9.694;2024-03-08T12:51:24;100522.50;;;9.58;56.86
77147;BME280;66121;52.584;9.694;2024-03-08T12:53:50;100482.28;;;9.06;55.79
77147;BME280;66121;52.584;9.694;2024-03-08T12:56:29;100479.91;;;9.05;56.56
77147;BME280;66121;52.584;9.694;2024-03-08T12:58:56;100451.59;;;9.04;56.17